sensor_id;sensor_type;location;lat;lon;timestamp;pressure;altitude;pressure_sealevel;temperature;humidity
4576;BME280;2300;51.874;8.430;2023-08-06T00:01:37;99795.13;;;14.72;100.00
4576;BME280;2300;51.874;8.430;2023-08-06T00:04:04;99799.28;;;14.75;100.00
4576;BME280;2300;51.874;8.430;2023-08-06T00:06:30;99788.78;;;14.77;100.00
4576;BME280;2300;51.874;8.430;2023-08-06T00:08:57;99792.91;;;14.74;100.00
4576;BME280;2300;51.874;8.430;2023-08-06T00:11:24;99776.66;;;14.62;100.00
4576;BME280;2300;51.874;8.430;2023-08-06T00:13:51;99784.38;;;14.71;100.00
4576;BME280;2300;51.874;8.430;2023-08-06T00:16:18;99781.63;;;14.71;100.00
4576;BME280;2300;51.874;8.430;2023-08-06T00:18:44;99779.69;;;14.66;100.00
4576;BME280;2300;51.874;8.430;2023-08-06T00:21:11;99772.78;;;14.63;100.00
4576;BME280;2300;51.874;8.430;2023-08-06T00:23:38;99773.03;;;14.67;100.00
4576;BME280;2300;51.874;8.430;2023-08-06T00:26:05;99775.56;;;14.58;100.00
4576;BME280;2300;51.874;8.430;2023-08-06T00:28:33;99766.72;;;14.51;100.00
4576;BME280;2300;51.874;8.430;2023-08-06T00:30:59;99770.06;;;14.53;100.00
4576;BME280;2300;51.874;8.430;2023-08-06T00:33:26;99766.19;;;14.54;100.00
4576;BME280;2300;51.874;8.430;2023-08-06T00:35:52;99767.81;;;14.65;100.00
4576;BME280;2300;51.874;8.430;2023-08-06T00:38:19;99759.53;;;14.60;100.00
4576;BME280;2300;51.874;8.430;2023-08-06T00:40:45;99755.09;;;14.64;100.00
4576;BME280;2300;51.874;8.430;2023-08-06T00:43:12;99760.66;;;14.54;100.00
4576;BME280;2300;51.874;8.430;2023-08-06T00:45:40;99756.81;;;14.55;100.00
4576;BME280;2300;51.874;8.430;2023-08-06T00:48:07;99757.88;;;14.59;100.00
4576;BME280;2300;51.874;8.430;2023-08-06T00:50:34;99758.75;;;14.50;100.00
4576;BME280;2300;51.874;8.430;2023-08-06T00:53:01;99751.25;;;14.60;100.00
4576;BME280;2300;51.874;8.430;2023-08-06T00:55:28;99749.06;;;14.52;100.00
4576;BME280;2300;51.874;8.430;2023-08-06T00:57:55;99750.69;;;14.58;100.00
4576;BME280;2300;51.874;8.430;2023-08-06T01:00:22;99747.09;;;14.63;100.00
4576;BME280;2300;51.874;8.430;2023-08-06T01:02:51;99743.50;;;14.57;100.00
4576;BME280;2300;51.874;8.430;2023-08-06T01:05:18;99728.66;;;14.38;100.00
4576;BME280;2300;51.874;8.430;2023-08-06T01:07:54;99735.53;;;14.46;100.00
4576;BME280;2300;51.874;8.430;2023-08-06T01:10:39;99736.09;;;14.43;100.00
4576;BME280;2300;51.874;8.430;2023-08-06T01:13:11;99737.50;;;14.45;100.00
4576;BME280;2300;51.874;8.430;2023-08-06T01:15:46;99729.22;;;14.45;100.00
4576;BME280;2300;51.874;8.430;2023-08-06T01:18:14;99738.63;;;14.39;100.00
4576;BME280;2300;51.874;8.430;2023-08-06T01:20:42;99730.00;;;14.46;100.00
4576;BME280;2300;51.874;8.430;2023-08-06T01:23:09;99728.63;;;14.48;100.00
4576;BME280;2300;51.874;8.430;2023-08-06T01:25:40;99730.81;;;14.56;100.00
4576;BME280;2300;51.874;8.430;2023-08-06T01:28:13;99726.94;;;14.57;100.00
4576;BME280;2300;51.874;8.430;2023-08-06T01:30:41;99726.66;;;14.59;100.00
4576;BME280;2300;51.874;8.430;2023-08-06T01:33:12;99724.19;;;14.52;100.00
4576;BME280;2300;51.874;8.430;2023-08-06T01:35:44;99723.69;;;14.45;100.00
4576;BME280;2300;51.874;8.430;2023-08-06T01:38:10;99723.13;;;14.48;100.00
4576;BME280;2300;51.874;8.430;2023-08-06T01:40:37;99721.47;;;14.37;100.00
4576;BME280;2300;51.874;8.430;2023-08-06T01:43:04;99716.50;;;14.44;100.00
4576;BME280;2300;51.874;8.430;2023-08-06T01:45:30;99710.97;;;14.44;100.00
4576;BME280;2300;51.874;8.430;2023-08-06T01:47:57;99707.13;;;14.45;100.00
4576;BME280;2300;51.874;8.430;2023-08-06T01:50:23;99702.44;;;14.36;100.00
4576;BME280;2300;51.874;8.430;2023-08-06T01:52:51;99700.50;;;14.31;100.00
4576;BME280;2300;51.874;8.430;2023-08-06T01:55:18;99702.44;;;14.31;100.00
4576;BME280;2300;51.874;8.430;2023-08-06T01:57:44;99695.81;;;14.37;100.00
4576;BME280;2300;51.874;8.430;2023-08-06T02:00:12;99696.09;;;14.40;100.00
4576;BME280;2300;51.874;8.430;2023-08-06T02:02:38;99698.31;;;14.33;100.00
4576;BME280;2300;51.874;8.430;2023-08-06T02:05:06;99698.59;;;14.27;100.00
4576;BME280;2300;51.874;8.430;2023-08-06T02:07:33;99692.22;;;14.31;100.00
4576;BME280;2300;51.874;8.430;2023-08-06T02:10:01;99685.34;;;14.29;100.00
4576;BME280;2300;51.874;8.430;2023-08-06T02:12:27;99683.94;;;14.31;100.00
4576;BME280;2300;51.874;8.430;2023-08-06T02:14:54;99674.84;;;14.26;100.00
4576;BME280;2300;51.874;8.430;2023-08-06T02:17:20;99679.56;;;14.15;100.00
4576;BME280;2300;51.874;8.430;2023-08-06T02:19:47;99681.25;;;14.06;100.00
4576;BME280;2300;51.874;8.430;2023-08-06T02:22:13;99680.94;;;14.22;100.00
4576;BME280;2300;51.874;8.430;2023-08-06T02:24:40;99682.31;;;14.20;100.00
4576;BME280;2300;51.874;8.430;2023-08-06T02:27:08;99683.44;;;14.24;100.00
4576;BME280;2300;51.874;8.430;2023-08-06T02:29:34;99678.44;;;14.26;100.00
4576;BME280;2300;51.874;8.430;2023-08-06T02:32:01;99677.34;;;14.27;100.00
4576;BME280;2300;51.874;8.430;2023-08-06T02:34:27;99669.91;;;14.22;100.00
4576;BME280;2300;51.874;8.430;2023-08-06T02:36:54;99674.59;;;14.22;100.00
4576;BME280;2300;51.874;8.430;2023-08-06T02:39:20;99666.06;;;14.18;100.00
4576;BME280;2300;51.874;8.430;2023-08-06T02:41:47;99663.28;;;14.18;100.00
4576;BME280;2300;51.874;8.430;2023-08-06T02:44:16;99661.38;;;14.14;100.00
4576;BME280;2300;51.874;8.430;2023-08-06T02:46:44;99647.03;;;14.12;100.00
4576;BME280;2300;51.874;8.430;2023-08-06T02:49:10;99643.44;;;14.06;100.00
4576;BME280;2300;51.874;8.430;2023-08-06T02:51:37;99639.56;;;13.97;100.00
4576;BME280;2300;51.874;8.430;2023-08-06T02:54:03;99640.69;;;14.01;100.00
4576;BME280;2300;51.874;8.430;2023-08-06T02:56:29;99642.06;;;13.99;100.00
4576;BME280;2300;51.874;8.430;2023-08-06T02:58:56;99645.63;;;13.94;100.00
4576;BME280;2300;51.874;8.430;2023-08-06T03:01:24;99648.72;;;13.88;100.00
4576;BME280;2300;51.874;8.430;2023-08-06T03:03:52;99642.88;;;13.89;100.00
4576;BME280;2300;51.874;8.430;2023-08-06T03:06:18;99644.84;;;13.94;100.00
4576;BME280;2300;51.874;8.430;2023-08-06T03:08:45;99629.66;;;13.86;100.00
4576;BME280;2300;51.874;8.430;2023-08-06T03:11:11;99642.38;;;13.82;100.00
4576;BME280;2300;51.874;8.430;2023-08-06T03:13:38;99629.97;;;13.74;100.00
4576;BME280;2300;51.874;8.430;2023-08-06T03:16:04;99629.44;;;13.72;100.00
4576;BME280;2300;51.874;8.430;2023-08-06T03:18:32;99612.06;;;13.67;100.00
4576;BME280;2300;51.874;8.430;2023-08-06T03:20:59;99616.19;;;13.64;100.00
4576;BME280;2300;51.874;8.430;2023-08-06T03:23:25;99615.91;;;13.61;100.00
4576;BME280;2300;51.874;8.430;2023-08-06T03:25:52;99625.84;;;13.62;100.00
4576;BME280;2300;51.874;8.430;2023-08-06T03:28:18;99619.78;;;13.65;100.00
4576;BME280;2300;51.874;8.430;2023-08-06T03:30:45;99626.13;;;13.55;100.00
4576;BME280;2300;51.874;8.430;2023-08-06T03:33:11;99620.34;;;13.57;100.00
4576;BME280;2300;51.874;8.430;2023-08-06T03:35:39;99621.19;;;13.52;100.00
4576;BME280;2300;51.874;8.430;2023-08-06T03:38:06;99620.63;;;13.55;100.00
4576;BME280;2300;51.874;8.430;2023-08-06T03:40:34;99614.00;;;13.51;100.00
4576;BME280;2300;51.874;8.430;2023-08-06T03:43:01;99606.00;;;13.39;100.00
4576;BME280;2300;51.874;8.430;2023-08-06T03:45:28;99619.53;;;13.41;100.00
4576;BME280;2300;51.874;8.430;2023-08-06T03:47:54;99606.84;;;13.40;100.00
4576;BME280;2300;51.874;8.430;2023-08-06T03:50:21;99606.56;;;13.36;100.00
4576;BME280;2300;51.874;8.430;2023-08-06T03:52:49;99601.59;;;13.38;100.00
4576;BME280;2300;51.874;8.430;2023-08-06T03:55:15;99598.84;;;13.38;100.00
4576;BME280;2300;51.874;8.430;2023-08-06T03:57:42;99602.44;;;13.34;100.00
4576;BME280;2300;51.874;8.430;2023-08-06T04:00:09;99594.16;;;13.24;100.00
4576;BME280;2300;51.874;8.430;2023-08-06T04:02:35;99594.72;;;13.31;100.00
4576;BME280;2300;51.874;8.430;2023-08-06T04:05:02;99599.66;;;13.39;100.00
4576;BME280;2300;51.874;8.430;2023-08-06T04:07:29;99596.38;;;13.47;100.00
4576;BME280;2300;51.874;8.430;2023-08-06T04:09:58;99574.00;;;13.54;100.00
4576;BME280;2300;51.874;8.430;2023-08-06T04:12:25;99594.97;;;13.60;100.00
4576;BME280;2300;51.874;8.430;2023-08-06T04:14:52;99577.06;;;13.52;100.00
4576;BME280;2300;51.874;8.430;2023-08-06T04:17:20;99596.88;;;13.69;100.00
4576;BME280;2300;51.874;8.430;2023-08-06T04:19:48;99595.19;;;13.73;100.00
4576;BME280;2300;51.874;8.430;2023-08-06T04:22:15;99597.13;;;13.78;100.00
4576;BME280;2300;51.874;8.430;2023-08-06T04:24:42;99588.06;;;13.62;100.00
4576;BME280;2300;51.874;8.430;2023-08-06T04:27:11;99591.91;;;13.71;100.00
4576;BME280;2300;51.874;8.430;2023-08-06T04:29:38;99593.84;;;13.71;100.00
4576;BME280;2300;51.874;8.430;2023-08-06T04:32:06;99597.13;;;13.78;100.00
4576;BME280;2300;51.874;8.430;2023-08-06T04:34:33;99601.25;;;13.80;100.00
4576;BME280;2300;51.874;8.430;2023-08-06T04:37:00;99599.09;;;13.72;100.00
4576;BME280;2300;51.874;8.430;2023-08-06T04:39:27;99594.94;;;13.75;100.00
4576;BME280;2300;51.874;8.430;2023-08-06T04:41:55;99599.59;;;13.74;100.00
4576;BME280;2300;51.874;8.430;2023-08-06T04:44:23;99594.13;;;13.59;100.00
4576;BME280;2300;51.874;8.430;2023-08-06T04:46:49;99597.94;;;13.73;100.00
4576;BME280;2300;51.874;8.430;2023-08-06T04:49:16;99611.47;;;13.75;100.00
4576;BME280;2300;51.874;8.430;2023-08-06T04:51:43;99611.19;;;13.87;100.00
4576;BME280;2300;51.874;8.430;2023-08-06T04:54:10;99602.91;;;13.87;100.00
4576;BME280;2300;51.874;8.430;2023-08-06T04:56:36;99602.91;;;13.87;100.00
4576;BME280;2300;51.874;8.430;2023-08-06T04:59:03;99600.13;;;13.92;100.00
4576;BME280;2300;51.874;8.430;2023-08-06T05:01:31;99600.16;;;13.87;100.00
4576;BME280;2300;51.874;8.430;2023-08-06T05:03:57;99609.75;;;13.99;100.00
4576;BME280;2300;51.874;8.430;2023-08-06T05:06:24;99605.88;;;14.00;100.00
4576;BME280;2300;51.874;8.430;2023-08-06T05:08:50;99612.09;;;14.41;100.00
4576;BME280;2300;51.874;8.430;2023-08-06T05:11:17;99601.22;;;15.72;100.00
4576;BME280;2300;51.874;8.430;2023-08-06T05:13:43;99609.06;;;16.60;100.00
4576;BME280;2300;51.874;8.430;2023-08-06T05:16:10;99602.47;;;16.56;99.10
4576;BME280;2300;51.874;8.430;2023-08-06T05:18:38;99609.56;;;16.43;98.18
4576;BME280;2300;51.874;8.430;2023-08-06T05:21:04;99608.47;;;15.91;98.55
4576;BME280;2300;51.874;8.430;2023-08-06T05:23:31;99610.69;;;15.37;99.38
4576;BME280;2300;51.874;8.430;2023-08-06T05:25:57;99615.00;;;15.14;100.00
4576;BME280;2300;51.874;8.430;2023-08-06T05:28:24;99604.03;;;14.99;100.00
4576;BME280;2300;51.874;8.430;2023-08-06T05:30:50;99615.84;;;15.48;100.00
4576;BME280;2300;51.874;8.430;2023-08-06T05:33:17;99614.72;;;16.02;100.00
4576;BME280;2300;51.874;8.430;2023-08-06T05:35:45;99622.78;;;16.51;98.06
4576;BME280;2300;51.874;8.430;2023-08-06T05:38:11;99623.78;;;17.16;92.85
4576;BME280;2300;51.874;8.430;2023-08-06T05:40:38;99618.31;;;17.11;91.82
4576;BME280;2300;51.874;8.430;2023-08-06T05:43:04;99616.16;;;17.08;91.84
4576;BME280;2300;51.874;8.430;2023-08-06T05:45:31;99596.16;;;17.76;91.71
4576;BME280;2300;51.874;8.430;2023-08-06T05:47:57;99617.59;;;18.30;87.45
4576;BME280;2300;51.874;8.430;2023-08-06T05:50:23;99616.16;;;17.59;87.67
4576;BME280;2300;51.874;8.430;2023-08-06T05:52:51;99623.78;;;17.16;88.87
4576;BME280;2300;51.874;8.430;2023-08-06T05:55:18;99624.72;;;16.69;91.18
4576;BME280;2300;51.874;8.430;2023-08-06T05:57:45;99617.00;;;16.24;93.06
4576;BME280;2300;51.874;8.430;2023-08-06T06:00:12;99612.03;;;15.97;95.88
4576;BME280;2300;51.874;8.430;2023-08-06T06:02:38;99586.38;;;15.63;97.05
4576;BME280;2300;51.874;8.430;2023-08-06T06:05:05;99615.16;;;15.62;98.29
4576;BME280;2300;51.874;8.430;2023-08-06T06:07:32;99613.28;;;15.57;99.24
4576;BME280;2300;51.874;8.430;2023-08-06T06:10:00;99619.88;;;15.61;99.92
4576;BME280;2300;51.874;8.430;2023-08-06T06:12:26;99613.03;;;15.54;100.00
4576;BME280;2300;51.874;8.430;2023-08-06T06:14:53;99619.81;;;15.66;100.00
4576;BME280;2300;51.874;8.430;2023-08-06T06:17:20;99612.34;;;15.67;100.00
4576;BME280;2300;51.874;8.430;2023-08-06T06:19:46;99616.13;;;16.28;100.00
4576;BME280;2300;51.874;8.430;2023-08-06T06:22:14;99616.13;;;16.71;100.00
4576;BME280;2300;51.874;8.430;2023-08-06T06:24:40;99616.72;;;16.87;97.71
4576;BME280;2300;51.874;8.430;2023-08-06T06:27:08;99617.09;;;16.61;96.28
4576;BME280;2300;51.874;8.430;2023-08-06T06:29:35;99617.91;;;16.62;96.93
4576;BME280;2300;51.874;8.430;2023-08-06T06:32:01;99616.56;;;16.59;97.44
4576;BME280;2300;51.874;8.430;2023-08-06T06:34:28;99621.66;;;16.52;98.61
4576;BME280;2300;51.874;8.430;2023-08-06T06:36:54;99620.50;;;16.53;98.64
4576;BME280;2300;51.874;8.430;2023-08-06T06:39:21;99614.59;;;16.60;99.73
4576;BME280;2300;51.874;8.430;2023-08-06T06:41:47;99617.50;;;16.73;99.86
4576;BME280;2300;51.874;8.430;2023-08-06T06:44:15;99621.38;;;16.91;99.85
4576;BME280;2300;51.874;8.430;2023-08-06T06:46:42;99615.34;;;17.08;99.17
4576;BME280;2300;51.874;8.430;2023-08-06T06:49:08;99606.94;;;17.13;98.31
4576;BME280;2300;51.874;8.430;2023-08-06T06:51:35;99610.50;;;17.32;98.80
4576;BME280;2300;51.874;8.430;2023-08-06T06:54:01;99609.59;;;17.83;97.72
4576;BME280;2300;51.874;8.430;2023-08-06T06:56:28;99609.66;;;18.51;96.63
4576;BME280;2300;51.874;8.430;2023-08-06T06:58:54;99600.88;;;19.21;90.98
4576;BME280;2300;51.874;8.430;2023-08-06T07:01:22;99600.88;;;19.65;87.13
4576;BME280;2300;51.874;8.430;2023-08-06T07:03:49;99604.06;;;20.12;84.81
4576;BME280;2300;51.874;8.430;2023-08-06T07:06:15;99600.47;;;20.60;83.21
4576;BME280;2300;51.874;8.430;2023-08-06T07:08:43;99601.19;;;21.51;82.23
4576;BME280;2300;51.874;8.430;2023-08-06T07:11:10;99603.38;;;21.92;78.46
4576;BME280;2300;51.874;8.430;2023-08-06T07:13:37;99606.94;;;21.55;76.79
4576;BME280;2300;51.874;8.430;2023-08-06T07:16:03;99597.94;;;21.32;77.30
4576;BME280;2300;51.874;8.430;2023-08-06T07:18:31;99608.31;;;22.04;80.24
4576;BME280;2300;51.874;8.430;2023-08-06T07:20:58;99607.50;;;22.41;75.68
4576;BME280;2300;51.874;8.430;2023-08-06T07:23:25;99596.13;;;22.76;75.96
4576;BME280;2300;51.874;8.430;2023-08-06T07:25:52;99601.19;;;22.82;74.04
4576;BME280;2300;51.874;8.430;2023-08-06T07:28:19;99603.66;;;23.25;75.10
4576;BME280;2300;51.874;8.430;2023-08-06T07:30:45;99594.31;;;23.75;75.21
4576;BME280;2300;51.874;8.430;2023-08-06T07:33:12;99598.03;;;23.79;72.04
4576;BME280;2300;51.874;8.430;2023-08-06T07:35:40;99597.28;;;24.03;72.22
4576;BME280;2300;51.874;8.430;2023-08-06T07:38:06;99593.97;;;23.76;71.37
4576;BME280;2300;51.874;8.430;2023-08-06T07:40:35;99595.00;;;23.72;71.24
4576;BME280;2300;51.874;8.430;2023-08-06T07:43:02;99597.97;;;23.34;69.84
4576;BME280;2300;51.874;8.430;2023-08-06T07:45:32;99593.75;;;22.57;71.27
4576;BME280;2300;51.874;8.430;2023-08-06T07:47:59;99599.81;;;22.30;75.05
4576;BME280;2300;51.874;8.430;2023-08-06T07:50:25;99600.00;;;22.33;74.55
4576;BME280;2300;51.874;8.430;2023-08-06T07:52:53;99595.53;;;22.61;75.14
4576;BME280;2300;51.874;8.430;2023-08-06T07:55:20;99592.66;;;22.79;72.81
4576;BME280;2300;51.874;8.430;2023-08-06T07:57:46;99592.19;;;22.77;70.73
4576;BME280;2300;51.874;8.430;2023-08-06T08:00:13;99598.31;;;23.12;72.03
4576;BME280;2300;51.874;8.430;2023-08-06T08:02:39;99591.31;;;23.05;70.91
4576;BME280;2300;51.874;8.430;2023-08-06T08:05:06;99589.19;;;23.23;70.34
4576;BME280;2300;51.874;8.430;2023-08-06T08:07:33;99589.13;;;23.65;69.10
4576;BME280;2300;51.874;8.430;2023-08-06T08:10:01;99583.72;;;24.05;67.82
4576;BME280;2300;51.874;8.430;2023-08-06T08:12:28;99582.81;;;23.56;67.68
4576;BME280;2300;51.874;8.430;2023-08-06T08:14:55;99585.84;;;22.88;67.21
4576;BME280;2300;51.874;8.430;2023-08-06T08:17:21;99591.16;;;22.52;70.45
4576;BME280;2300;51.874;8.430;2023-08-06T08:19:48;99583.75;;;22.18;71.35
4576;BME280;2300;51.874;8.430;2023-08-06T08:22:14;99585.47;;;21.93;70.31
4576;BME280;2300;51.874;8.430;2023-08-06T08:24:41;99576.34;;;21.67;69.99
4576;BME280;2300;51.874;8.430;2023-08-06T08:27:09;99583.78;;;21.46;71.12
4576;BME280;2300;51.874;8.430;2023-08-06T08:29:35;99590.53;;;21.27;71.31
4576;BME280;2300;51.874;8.430;2023-08-06T08:32:02;99585.25;;;21.52;71.18
4576;BME280;2300;51.874;8.430;2023-08-06T08:34:28;99577.00;;;21.72;70.28
4576;BME280;2300;51.874;8.430;2023-08-06T08:36:55;99581.03;;;21.92;69.63
4576;BME280;2300;51.874;8.430;2023-08-06T08:39:22;99586.66;;;21.84;69.68
4576;BME280;2300;51.874;8.430;2023-08-06T08:41:49;99583.28;;;21.61;69.23
4576;BME280;2300;51.874;8.430;2023-08-06T08:44:17;99575.41;;;21.20;72.46
4576;BME280;2300;51.874;8.430;2023-08-06T08:46:44;99548.34;;;21.12;72.73
4576;BME280;2300;51.874;8.430;2023-08-06T08:49:12;99580.19;;;21.36;71.12
4576;BME280;2300;51.874;8.430;2023-08-06T08:51:39;99577.69;;;21.52;72.78
4576;BME280;2300;51.874;8.430;2023-08-06T08:54:07;99574.56;;;21.71;73.37
4576;BME280;2300;51.874;8.430;2023-08-06T08:56:35;99576.31;;;21.84;72.43
4576;BME280;2300;51.874;8.430;2023-08-06T08:59:01;99578.66;;;21.65;72.04
4576;BME280;2300;51.874;8.430;2023-08-06T09:01:30;99581.41;;;21.82;72.27
4576;BME280;2300;51.874;8.430;2023-08-06T09:03:57;99582.66;;;22.10;71.33
4576;BME280;2300;51.874;8.430;2023-08-06T09:06:25;99588.06;;;22.45;71.75
4576;BME280;2300;51.874;8.430;2023-08-06T09:09:01;99579.41;;;22.38;69.10
4576;BME280;2300;51.874;8.430;2023-08-06T09:11:29;99580.16;;;22.17;70.25
4576;BME280;2300;51.874;8.430;2023-08-06T09:14:05;99585.75;;;22.17;69.63
4576;BME280;2300;51.874;8.430;2023-08-06T09:16:34;99583.16;;;22.04;70.12
4576;BME280;2300;51.874;8.430;2023-08-06T09:19:07;99579.84;;;21.47;70.70
4576;BME280;2300;51.874;8.430;2023-08-06T09:21:36;99573.28;;;21.25;69.59
4576;BME280;2300;51.874;8.430;2023-08-06T09:24:07;99571.00;;;21.19;71.27
4576;BME280;2300;51.874;8.430;2023-08-06T09:26:35;99582.16;;;21.19;70.38
4576;BME280;2300;51.874;8.430;2023-08-06T09:29:04;99571.66;;;21.07;71.89
4576;BME280;2300;51.874;8.430;2023-08-06T09:31:40;99579.38;;;21.27;70.85
4576;BME280;2300;51.874;8.430;2023-08-06T09:34:10;99575.75;;;21.01;71.75
4576;BME280;2300;51.874;8.430;2023-08-06T09:36:40;99578.53;;;21.01;71.46
4576;BME280;2300;51.874;8.430;2023-08-06T09:39:12;99581.13;;;21.58;69.86
4576;BME280;2300;51.874;8.430;2023-08-06T09:41:39;99575.22;;;22.14;69.80
4576;BME280;2300;51.874;8.430;2023-08-06T09:44:15;99570.63;;;22.77;69.96
4576;BME280;2300;51.874;8.430;2023-08-06T09:46:47;99568.72;;;22.69;70.74
4576;BME280;2300;51.874;8.430;2023-08-06T09:49:14;99571.66;;;22.93;66.67
4576;BME280;2300;51.874;8.430;2023-08-06T09:51:41;99558.72;;;22.30;66.70
4576;BME280;2300;51.874;8.430;2023-08-06T09:54:11;99575.72;;;22.46;66.17
4576;BME280;2300;51.874;8.430;2023-08-06T09:56:38;99571.44;;;22.78;66.94
4576;BME280;2300;51.874;8.430;2023-08-06T09:59:05;99562.56;;;22.76;62.85
4576;BME280;2300;51.874;8.430;2023-08-06T10:01:32;99567.06;;;22.89;67.06
4576;BME280;2300;51.874;8.430;2023-08-06T10:04:01;99560.81;;;22.62;66.92
4576;BME280;2300;51.874;8.430;2023-08-06T10:06:29;99559.50;;;22.60;66.24
4576;BME280;2300;51.874;8.430;2023-08-06T10:08:56;99558.56;;;22.56;65.68
4576;BME280;2300;51.874;8.430;2023-08-06T10:11:24;99568.00;;;22.13;65.84
4576;BME280;2300;51.874;8.430;2023-08-06T10:13:54;99567.25;;;21.87;68.34
4576;BME280;2300;51.874;8.430;2023-08-06T10:16:23;99565.31;;;21.79;68.78
4576;BME280;2300;51.874;8.430;2023-08-06T10:18:50;99566.97;;;22.18;67.25
4576;BME280;2300;51.874;8.430;2023-08-06T10:21:19;99565.69;;;22.15;62.67
4576;BME280;2300;51.874;8.430;2023-08-06T10:23:53;99570.53;;;22.36;64.59
4576;BME280;2300;51.874;8.430;2023-08-06T10:26:20;99563.66;;;22.25;62.97
4576;BME280;2300;51.874;8.430;2023-08-06T10:28:47;99560.94;;;22.16;64.17
4576;BME280;2300;51.874;8.430;2023-08-06T10:31:13;99553.47;;;21.82;66.51
4576;BME280;2300;51.874;8.430;2023-08-06T10:33:41;99558.00;;;22.12;65.00
4576;BME280;2300;51.874;8.430;2023-08-06T10:36:09;99549.78;;;22.07;67.64
4576;BME280;2300;51.874;8.430;2023-08-06T10:38:44;99554.63;;;21.81;68.81
4576;BME280;2300;51.874;8.430;2023-08-06T10:41:15;99543.09;;;21.19;71.08
4576;BME280;2300;51.874;8.430;2023-08-06T10:43:42;99543.25;;;21.05;72.68
4576;BME280;2300;51.874;8.430;2023-08-06T10:46:11;99549.63;;;20.88;74.08
4576;BME280;2300;51.874;8.430;2023-08-06T10:48:39;99552.09;;;20.90;73.63
4576;BME280;2300;51.874;8.430;2023-08-06T10:51:07;99549.81;;;20.75;73.81
4576;BME280;2300;51.874;8.430;2023-08-06T10:53:34;99546.53;;;20.81;73.29
4576;BME280;2300;51.874;8.430;2023-08-06T10:56:02;99554.09;;;20.98;72.24
4576;BME280;2300;51.874;8.430;2023-08-06T10:58:38;99563.44;;;21.19;72.35
4576;BME280;2300;51.874;8.430;2023-08-06T11:01:05;99567.56;;;21.13;71.22
4576;BME280;2300;51.874;8.430;2023-08-06T11:03:32;99558.69;;;21.28;70.22
4576;BME280;2300;51.874;8.430;2023-08-06T11:05:59;99565.22;;;21.15;70.17
4576;BME280;2300;51.874;8.430;2023-08-06T11:08:26;99558.66;;;21.20;69.89
4576;BME280;2300;51.874;8.430;2023-08-06T11:10:53;99531.09;;;20.84;69.48
4576;BME280;2300;51.874;8.430;2023-08-06T11:13:21;99546.19;;;21.00;68.61
4576;BME280;2300;51.874;8.430;2023-08-06T11:15:48;99550.13;;;20.99;70.08
4576;BME280;2300;51.874;8.430;2023-08-06T11:18:14;99543.91;;;21.02;72.09
4576;BME280;2300;51.874;8.430;2023-08-06T11:20:42;99541.94;;;21.11;70.67
4576;BME280;2300;51.874;8.430;2023-08-06T11:23:10;99545.22;;;21.13;71.11
4576;BME280;2300;51.874;8.430;2023-08-06T11:25:37;99538.66;;;21.26;70.83
4576;BME280;2300;51.874;8.430;2023-08-06T11:28:03;99538.81;;;21.30;68.51
4576;BME280;2300;51.874;8.430;2023-08-06T11:30:32;99538.31;;;21.36;70.24
4576;BME280;2300;51.874;8.430;2023-08-06T11:32:58;99537.81;;;21.43;69.33
4576;BME280;2300;51.874;8.430;2023-08-06T11:35:25;99545.25;;;21.77;69.29
4576;BME280;2300;51.874;8.430;2023-08-06T11:37:51;99548.56;;;21.79;69.35
4576;BME280;2300;51.874;8.430;2023-08-06T11:40:18;99544.28;;;21.82;68.33
4576;BME280;2300;51.874;8.430;2023-08-06T11:42:46;99556.38;;;21.94;70.17
4576;BME280;2300;51.874;8.430;2023-08-06T11:45:13;99554.72;;;21.93;66.88
4576;BME280;2300;51.874;8.430;2023-08-06T11:47:50;99545.53;;;21.93;69.36
4576;BME280;2300;51.874;8.430;2023-08-06T11:50:22;99538.34;;;21.83;71.16
4576;BME280;2300;51.874;8.430;2023-08-06T11:52:53;99538.50;;;21.95;68.74
4576;BME280;2300;51.874;8.430;2023-08-06T11:55:23;99537.38;;;21.79;70.73
4576;BME280;2300;51.874;8.430;2023-08-06T11:57:50;99533.63;;;21.75;71.59
4576;BME280;2300;51.874;8.430;2023-08-06T12:00:17;99538.25;;;21.71;71.89
4576;BME280;2300;51.874;8.430;2023-08-06T12:02:49;99521.22;;;21.47;74.63
4576;BME280;2300;51.874;8.430;2023-08-06T12:05:18;99521.91;;;21.26;77.15
4576;BME280;2300;51.874;8.430;2023-08-06T12:07:47;99520.75;;;21.10;79.75
4576;BME280;2300;51.874;8.430;2023-08-06T12:10:15;99524.84;;;21.04;79.78
4576;BME280;2300;51.874;8.430;2023-08-06T12:12:41;99535.03;;;21.00;80.89
4576;BME280;2300;51.874;8.430;2023-08-06T12:15:09;99534.72;;;20.93;80.00
4576;BME280;2300;51.874;8.430;2023-08-06T12:17:36;99524.69;;;20.49;83.11
4576;BME280;2300;51.874;8.430;2023-08-06T12:20:05;99533.38;;;20.47;82.93
4576;BME280;2300;51.874;8.430;2023-08-06T12:22:33;99531.25;;;20.44;85.83
4576;BME280;2300;51.874;8.430;2023-08-06T12:25:01;99539.22;;;20.37;85.20
4576;BME280;2300;51.874;8.430;2023-08-06T12:27:27;99528.66;;;20.57;83.08
4576;BME280;2300;51.874;8.430;2023-08-06T12:29:54;99531.91;;;20.50;85.81
4576;BME280;2300;51.874;8.430;2023-08-06T12:32:21;99532.06;;;20.53;85.73
4576;BME280;2300;51.874;8.430;2023-08-06T12:34:47;99532.06;;;20.53;84.93
4576;BME280;2300;51.874;8.430;2023-08-06T12:37:15;99528.97;;;20.55;84.26
4576;BME280;2300;51.874;8.430;2023-08-06T12:39:42;99522.75;;;20.67;87.24
4576;BME280;2300;51.874;8.430;2023-08-06T12:42:08;99524.22;;;20.90;86.85
4576;BME280;2300;51.874;8.430;2023-08-06T12:44:35;99526.00;;;21.12;85.58
4576;BME280;2300;51.874;8.430;2023-08-06T12:47:02;99519.94;;;21.01;83.01
4576;BME280;2300;51.874;8.430;2023-08-06T12:49:29;99522.56;;;20.89;85.00
4576;BME280;2300;51.874;8.430;2023-08-06T12:51:57;99515.22;;;20.67;84.80
4576;BME280;2300;51.874;8.430;2023-08-06T12:54:27;99523.91;;;20.83;86.85
4576;BME280;2300;51.874;8.430;2023-08-06T12:56:54;99523.56;;;20.93;87.50
4576;BME280;2300;51.874;8.430;2023-08-06T12:59:20;99528.81;;;21.03;85.79
4576;BME280;2300;51.874;8.430;2023-08-06T13:01:47;99533.91;;;21.01;86.02
4576;BME280;2300;51.874;8.430;2023-08-06T13:04:14;99538.16;;;20.73;87.72
4576;BME280;2300;51.874;8.430;2023-08-06T13:06:41;99539.97;;;20.69;89.47
4576;BME280;2300;51.874;8.430;2023-08-06T13:09:07;99553.75;;;20.74;87.13
4576;BME280;2300;51.874;8.430;2023-08-06T13:11:35;99556.84;;;20.55;88.26
4576;BME280;2300;51.874;8.430;2023-08-06T13:14:07;99559.31;;;20.65;89.75
4576;BME280;2300;51.874;8.430;2023-08-06T13:16:34;99562.72;;;20.53;89.38
4576;BME280;2300;51.874;8.430;2023-08-06T13:19:01;99549.84;;;19.79;87.83